createdAt,value
2018-11-04T00:00:27.032Z,61.38
2018-11-04T00:02:55.096Z,61.10
2018-11-04T00:05:23.184Z,60.85
2018-11-04T00:07:52.009Z,60.53
2018-11-04T00:10:20.077Z,60.70
2018-11-04T00:12:48.165Z,60.66
2018-11-04T00:15:16.234Z,61.31
2018-11-04T00:17:44.417Z,60.90
2018-11-04T00:20:13.621Z,61.08
2018-11-04T00:22:41.696Z,60.57
2018-11-04T00:25:11.785Z,60.62
2018-11-04T00:27:39.954Z,60.31
2018-11-04T00:30:10.454Z,60.97
2018-11-04T00:32:38.621Z,61.01
2018-11-04T00:35:07.114Z,61.01
2018-11-04T00:37:35.197Z,60.93
2018-11-04T00:40:03.399Z,61.05
2018-11-04T00:42:31.552Z,60.56
2018-11-04T00:44:59.703Z,60.56
2018-11-04T00:47:28.147Z,60.89
2018-11-04T00:49:56.293Z,60.78
2018-11-04T00:52:24.392Z,60.73
2018-11-04T00:54:52.484Z,60.48
2018-11-04T00:57:20.565Z,60.88
2018-11-04T00:59:48.620Z,61.00
2018-11-04T01:02:16.714Z,60.57
2018-11-04T01:04:44.784Z,60.66
2018-11-04T01:07:12.874Z,61.45
2018-11-04T01:09:40.938Z,61.32
2018-11-04T01:12:09.041Z,61.21
2018-11-04T01:14:37.156Z,61.20
2018-11-04T01:17:05.248Z,60.65
2018-11-04T01:19:33.341Z,60.93
2018-11-04T01:22:01.450Z,60.77
2018-11-04T01:24:29.614Z,61.00
2018-11-04T01:26:57.842Z,61.04
2018-11-04T01:29:26.016Z,61.21
2018-11-04T01:31:54.100Z,61.70
2018-11-04T01:34:22.190Z,61.35
2018-11-04T01:36:50.384Z,61.13
2018-11-04T01:39:18.460Z,61.53
2018-11-04T01:41:46.577Z,61.69
2018-11-04T01:44:14.633Z,61.79
2018-11-04T01:46:43.008Z,61.34
2018-11-04T01:49:11.082Z,61.27
2018-11-04T01:51:39.188Z,61.54
2018-11-04T01:54:07.378Z,61.76
2018-11-04T01:56:35.621Z,61.52
2018-11-04T01:59:04.033Z,61.66
2018-11-04T02:01:32.184Z,62.14
2018-11-04T02:04:00.297Z,62.12
2018-11-04T02:06:28.472Z,62.13
2018-11-04T02:08:56.942Z,61.99
2018-11-04T02:11:25.053Z,62.23
2018-11-04T02:13:53.173Z,61.90
2018-11-04T02:16:21.261Z,61.71
2018-11-04T02:18:49.344Z,62.15
2018-11-04T02:21:17.476Z,61.60
2018-11-04T02:23:45.542Z,61.97
2018-11-04T02:26:13.604Z,62.00
2018-11-04T02:28:41.700Z,61.64
2018-11-04T02:31:09.777Z,61.64
2018-11-04T02:33:37.933Z,61.35
2018-11-04T02:36:06.333Z,61.45
2018-11-04T02:38:34.388Z,61.03
2018-11-04T02:41:02.510Z,61.62
2018-11-04T02:43:30.578Z,61.38
2018-11-04T02:45:58.819Z,61.35
2018-11-04T02:48:26.864Z,61.35
2018-11-04T02:50:54.937Z,61.49
2018-11-04T02:53:23.001Z,61.38
2018-11-04T02:55:51.108Z,61.67
2018-11-04T02:58:19.259Z,61.67
2018-11-04T03:00:47.337Z,61.87
2018-11-04T03:03:15.453Z,62.18
2018-11-04T03:05:43.548Z,61.85
2018-11-04T03:08:11.697Z,61.79
2018-11-04T03:10:39.772Z,62.21
2018-11-04T03:13:07.862Z,61.84
2018-11-04T03:15:35.975Z,61.99
2018-11-04T03:18:04.051Z,62.00
2018-11-04T03:20:32.111Z,62.06
2018-11-04T03:23:00.235Z,61.68
2018-11-04T03:25:28.318Z,62.09
2018-11-04T03:27:56.428Z,61.50
2018-11-04T03:30:24.537Z,61.73
2018-11-04T03:32:52.631Z,61.99
2018-11-04T03:35:20.833Z,61.66
2018-11-04T03:37:48.912Z,61.98
2018-11-04T03:40:17.012Z,62.06
2018-11-04T03:42:45.212Z,62.14
2018-11-04T03:45:13.274Z,61.52
2018-11-04T03:47:41.684Z,61.67
2018-11-04T03:50:11.393Z,61.58
2018-11-04T03:52:39.544Z,61.88
2018-11-04T03:55:08.038Z,61.85
2018-11-04T03:57:36.225Z,61.83
2018-11-04T04:00:04.709Z,61.78
2018-11-04T04:02:32.798Z,62.12
2018-11-04T04:05:00.904Z,62.38
2018-11-04T04:07:29.009Z,61.99
2018-11-04T04:09:57.096Z,61.48
2018-11-04T04:12:25.188Z,61.79
2018-11-04T04:14:53.308Z,60.50
2018-11-04T04:17:21.422Z,60.71
2018-11-04T04:19:49.529Z,60.64
2018-11-04T04:22:17.601Z,60.79
2018-11-04T04:24:45.694Z,60.99
2018-11-04T04:27:13.769Z,61.29
2018-11-04T04:29:41.882Z,60.95
2018-11-04T04:32:09.931Z,61.11
2018-11-04T04:34:38.104Z,61.49
2018-11-04T04:37:06.250Z,61.44
2018-11-04T04:39:34.316Z,61.26
2018-11-04T04:42:02.412Z,61.81
2018-11-04T04:44:30.486Z,61.49
2018-11-04T04:46:58.597Z,61.85
2018-11-04T04:49:26.698Z,62.30
2018-11-04T04:51:54.797Z,62.22
2018-11-04T04:54:22.918Z,62.44
2018-11-04T04:56:50.979Z,62.18
2018-11-04T04:59:19.070Z,62.00
2018-11-04T05:01:47.160Z,62.16
2018-11-04T05:04:15.237Z,62.30
2018-11-04T05:06:43.350Z,62.62
2018-11-04T05:09:11.427Z,62.27
2018-11-04T05:11:39.493Z,62.20
2018-11-04T05:14:07.568Z,62.31
2018-11-04T05:16:35.642Z,61.93
2018-11-04T05:19:03.716Z,62.35
2018-11-04T05:21:31.784Z,62.06
2018-11-04T05:23:59.891Z,62.23
2018-11-04T05:26:27.958Z,62.69
2018-11-04T05:28:56.028Z,62.36
2018-11-04T05:31:24.106Z,62.49
2018-11-04T05:33:52.176Z,62.56
2018-11-04T05:36:20.241Z,62.53
2018-11-04T05:38:48.333Z,62.12
2018-11-04T05:41:16.452Z,62.25
2018-11-04T05:43:44.521Z,62.26
2018-11-04T05:46:12.670Z,61.51
2018-11-04T05:48:40.744Z,61.57
2018-11-04T05:51:08.797Z,61.79
2018-11-04T05:53:39.590Z,61.71
2018-11-04T05:56:08.199Z,61.78
2018-11-04T05:58:36.349Z,61.98
2018-11-04T06:01:04.531Z,61.66
2018-11-04T06:03:32.615Z,61.95
2018-11-04T06:06:00.699Z,62.12
2018-11-04T06:08:28.801Z,61.80
2018-11-04T06:10:56.871Z,62.26
2018-11-04T06:13:24.949Z,62.20
2018-11-04T06:15:53.024Z,62.29
2018-11-04T06:18:21.112Z,61.55
2018-11-04T06:20:49.223Z,61.28
2018-11-04T06:23:17.288Z,61.45
2018-11-04T06:25:45.485Z,61.91
2018-11-04T06:28:13.564Z,61.48
2018-11-04T06:30:41.642Z,61.86
2018-11-04T06:33:09.725Z,61.56
2018-11-04T06:35:37.814Z,61.38
2018-11-04T06:38:06.313Z,61.20
2018-11-04T06:40:34.396Z,61.40
2018-11-04T06:43:02.476Z,61.48
2018-11-04T06:45:30.600Z,61.46
2018-11-04T06:47:58.689Z,61.35
2018-11-04T06:50:26.776Z,61.67
2018-11-04T06:52:54.861Z,61.61
2018-11-04T06:55:22.934Z,61.35
2018-11-04T06:57:51.041Z,61.79
2018-11-04T07:00:19.137Z,61.41
2018-11-04T07:02:47.221Z,61.66
2018-11-04T07:05:15.349Z,61.68
2018-11-04T07:07:43.404Z,61.67
2018-11-04T07:10:11.511Z,61.70
2018-11-04T07:12:39.585Z,61.49
2018-11-04T07:15:07.695Z,61.35
2018-11-04T07:17:35.830Z,60.93
2018-11-04T07:20:04.034Z,61.27
2018-11-04T07:22:31.984Z,61.59
2018-11-04T07:25:00.077Z,61.72
2018-11-04T07:27:28.159Z,61.80
2018-11-04T07:29:56.216Z,61.34
2018-11-04T07:32:24.282Z,61.43
2018-11-04T07:34:52.393Z,61.48
2018-11-04T07:37:20.496Z,61.76
2018-11-04T07:39:48.557Z,61.82
2018-11-04T07:42:16.671Z,61.58
2018-11-04T07:44:44.737Z,61.56
2018-11-04T07:47:12.830Z,61.83
2018-11-04T07:49:40.909Z,61.28
2018-11-04T07:52:08.969Z,61.97
2018-11-04T07:54:37.084Z,61.17
2018-11-04T07:57:05.296Z,61.63
2018-11-04T07:59:33.388Z,61.42
2018-11-04T08:02:01.484Z,61.70
2018-11-04T08:04:29.572Z,61.49
2018-11-04T08:06:57.700Z,61.38
2018-11-04T08:09:25.750Z,61.31
2018-11-04T08:11:53.845Z,61.10
2018-11-04T08:14:21.909Z,60.97
2018-11-04T08:16:49.984Z,61.30
2018-11-04T08:19:18.092Z,61.32
2018-11-04T08:21:46.202Z,60.85
2018-11-04T08:24:14.269Z,60.55
2018-11-04T08:26:42.356Z,60.76
2018-11-04T08:29:10.444Z,60.58
2018-11-04T08:31:38.529Z,60.52
2018-11-04T08:34:06.609Z,60.97
2018-11-04T08:36:34.699Z,61.17
2018-11-04T08:39:02.876Z,61.50
2018-11-04T08:41:30.946Z,60.98
2018-11-04T08:43:59.081Z,60.68
2018-11-04T08:46:27.132Z,60.85
2018-11-04T08:48:55.217Z,60.89
2018-11-04T08:51:23.252Z,61.22
2018-11-04T08:53:51.348Z,61.14
2018-11-04T08:56:19.421Z,60.89
2018-11-04T08:58:47.537Z,61.31
2018-11-04T09:01:15.598Z,60.67
2018-11-04T09:03:43.733Z,60.36
2018-11-04T09:06:11.796Z,60.52
2018-11-04T09:08:39.947Z,60.14
2018-11-04T09:11:08.161Z,60.24
2018-11-04T09:13:36.261Z,59.89
2018-11-04T09:16:04.339Z,59.56
2018-11-04T09:18:32.438Z,59.86
2018-11-04T09:21:00.538Z,59.55
2018-11-04T09:23:28.651Z,59.61
2018-11-04T09:25:56.745Z,59.67
2018-11-04T09:28:24.849Z,59.41
2018-11-04T09:30:52.945Z,59.70
2018-11-04T09:33:21.025Z,59.24
2018-11-04T09:35:49.293Z,59.56
2018-11-04T09:38:17.241Z,59.60
2018-11-04T09:40:45.345Z,59.08
2018-11-04T09:43:13.418Z,58.81
2018-11-04T09:45:41.515Z,58.77
2018-11-04T09:48:09.599Z,58.52
2018-11-04T09:50:37.681Z,58.49
2018-11-04T09:53:06.034Z,58.60
2018-11-04T09:55:34.112Z,58.71
2018-11-04T09:58:02.241Z,57.78
2018-11-04T10:00:30.308Z,57.91
2018-11-04T10:02:58.452Z,57.83
2018-11-04T10:05:26.525Z,57.25
2018-11-04T10:07:54.626Z,57.29
2018-11-04T10:10:22.754Z,57.35
2018-11-04T10:12:50.845Z,57.48
2018-11-04T10:15:18.941Z,57.54
2018-11-04T10:17:47.024Z,57.29
2018-11-04T10:20:15.691Z,57.82
2018-11-04T10:22:43.278Z,57.49
2018-11-04T10:25:12.673Z,57.10
2018-11-04T10:27:41.541Z,57.23
2018-11-04T10:30:12.446Z,57.69
2018-11-04T10:32:40.477Z,56.90
2018-11-04T10:35:09.452Z,57.07
2018-11-04T10:37:38.148Z,56.92
2018-11-04T10:40:07.673Z,57.73
2018-11-04T10:42:35.759Z,57.51
2018-11-04T10:45:04.304Z,56.71
2018-11-04T10:47:32.376Z,56.87
2018-11-04T10:50:00.611Z,55.95
2018-11-04T10:52:28.641Z,55.54
2018-11-04T10:54:56.744Z,55.13
2018-11-04T10:57:24.920Z,55.14
2018-11-04T10:59:53.031Z,55.41
2018-11-04T11:02:21.184Z,55.00
2018-11-04T11:04:49.270Z,55.23
2018-11-04T11:07:17.372Z,55.14
2018-11-04T11:09:45.438Z,55.45
2018-11-04T11:12:13.520Z,54.78
2018-11-04T11:14:41.576Z,55.26
2018-11-04T11:17:09.670Z,55.61
2018-11-04T11:19:37.798Z,55.96
2018-11-04T11:22:05.870Z,55.80
2018-11-04T11:24:33.954Z,55.83
2018-11-04T11:27:02.048Z,55.89
2018-11-04T11:29:30.157Z,55.40
2018-11-04T11:31:58.266Z,54.48
2018-11-04T11:34:26.430Z,54.52
2018-11-04T11:36:54.523Z,54.46
2018-11-04T11:39:22.606Z,54.27
2018-11-04T11:41:50.741Z,54.91
2018-11-04T11:44:18.877Z,55.35
2018-11-04T11:46:47.000Z,55.44
2018-11-04T11:49:15.168Z,55.67
2018-11-04T11:51:43.265Z,56.04
2018-11-04T11:54:11.451Z,56.51
2018-11-04T11:56:39.617Z,56.14
2018-11-04T11:59:07.734Z,55.77
2018-11-04T12:01:35.796Z,56.16
2018-11-04T12:04:03.955Z,56.23
2018-11-04T12:06:32.027Z,56.63
2018-11-04T12:09:00.156Z,57.06
2018-11-04T12:11:28.462Z,57.55
2018-11-04T12:13:56.641Z,58.14
2018-11-04T12:16:24.765Z,57.21
2018-11-04T12:18:52.844Z,57.06
2018-11-04T12:21:20.964Z,56.43
2018-11-04T12:23:49.140Z,56.95
2018-11-04T12:26:17.135Z,56.35
2018-11-04T12:28:45.213Z,56.49
2018-11-04T12:31:13.328Z,56.74
2018-11-04T12:33:41.416Z,57.11
2018-11-04T12:36:09.521Z,56.42
2018-11-04T12:38:37.622Z,56.36
2018-11-04T12:41:06.085Z,56.59
2018-11-04T12:43:34.184Z,56.29
2018-11-04T12:46:02.287Z,56.54
2018-11-04T12:48:30.357Z,56.17
2018-11-04T12:50:58.484Z,57.47
2018-11-04T12:53:26.651Z,56.89
2018-11-04T12:55:54.820Z,57.38
2018-11-04T12:58:22.952Z,56.88
2018-11-04T13:00:51.041Z,57.39
2018-11-04T13:03:19.161Z,57.83
2018-11-04T13:05:47.277Z,57.17
2018-11-04T13:08:15.370Z,57.14
2018-11-04T13:10:43.490Z,57.28
2018-11-04T13:13:11.571Z,56.71
2018-11-04T13:15:39.721Z,57.39
2018-11-04T13:18:07.843Z,58.00
2018-11-04T13:20:35.913Z,57.86
2018-11-04T13:23:04.421Z,58.58
2018-11-04T13:25:32.486Z,59.01
2018-11-04T13:28:00.578Z,58.53
2018-11-04T13:30:28.681Z,58.76
2018-11-04T13:32:56.773Z,58.90
2018-11-04T13:35:24.906Z,58.58
2018-11-04T13:37:53.028Z,58.56
2018-11-04T13:40:21.151Z,59.81
2018-11-04T13:42:49.331Z,58.86
2018-11-04T13:45:17.430Z,59.27
2018-11-04T13:47:45.544Z,59.04
2018-11-04T13:50:14.644Z,58.40
2018-11-04T13:52:43.257Z,59.07
2018-11-04T13:55:11.352Z,58.69
2018-11-04T13:57:40.104Z,59.17
2018-11-04T14:00:11.860Z,59.09
2018-11-04T14:02:39.984Z,59.30
2018-11-04T14:05:08.846Z,59.24
2018-11-04T14:07:37.088Z,58.92
2018-11-04T14:10:06.104Z,59.23
2018-11-04T14:12:34.201Z,59.41
2018-11-04T14:15:02.423Z,59.73
2018-11-04T14:17:30.460Z,59.89
2018-11-04T14:19:58.877Z,60.02
2018-11-04T14:22:27.026Z,59.80
2018-11-04T14:24:55.227Z,59.35
2018-11-04T14:27:23.399Z,59.84
2018-11-04T14:29:51.495Z,59.61
2018-11-04T14:32:19.651Z,60.16
2018-11-04T14:34:47.752Z,60.16
2018-11-04T14:37:15.848Z,60.26
2018-11-04T14:39:43.948Z,60.03
2018-11-04T14:42:12.072Z,60.40
2018-11-04T14:44:40.141Z,59.79
2018-11-04T14:47:08.245Z,60.32
2018-11-04T14:49:36.356Z,60.80
2018-11-04T14:52:04.684Z,60.54
2018-11-04T14:54:32.828Z,60.38
2018-11-04T14:57:00.975Z,60.32
2018-11-04T14:59:29.093Z,60.74
2018-11-04T15:01:57.344Z,60.84
2018-11-04T15:04:25.431Z,60.95
2018-11-04T15:06:53.496Z,60.64
2018-11-04T15:09:21.563Z,60.80
2018-11-04T15:11:49.682Z,60.97
2018-11-04T15:14:17.789Z,61.24
2018-11-04T15:16:45.872Z,61.02
2018-11-04T15:19:13.981Z,60.36
2018-11-04T15:21:42.070Z,60.63
2018-11-04T15:24:10.166Z,61.18
2018-11-04T15:26:38.299Z,61.05
2018-11-04T15:29:06.366Z,61.44
2018-11-04T15:31:34.440Z,61.50
2018-11-04T15:34:02.632Z,61.36
2018-11-04T15:36:30.629Z,61.65
2018-11-04T15:38:58.738Z,61.70
2018-11-04T15:41:26.961Z,61.56
2018-11-04T15:43:55.051Z,61.07
2018-11-04T15:46:23.203Z,61.78
2018-11-04T15:48:51.311Z,62.12
2018-11-04T15:51:19.370Z,61.27
2018-11-04T15:53:47.441Z,61.42
2018-11-04T15:56:15.500Z,62.34
2018-11-04T15:58:43.588Z,61.80
2018-11-04T16:01:11.664Z,61.81
2018-11-04T16:03:39.762Z,62.11
2018-11-04T16:06:07.854Z,62.01
2018-11-04T16:08:35.929Z,62.09
2018-11-04T16:11:04.001Z,61.56
2018-11-04T16:13:32.101Z,62.08
2018-11-04T16:16:00.169Z,62.17
2018-11-04T16:18:28.401Z,62.02
2018-11-04T16:20:56.372Z,62.16
2018-11-04T16:23:24.466Z,61.95
2018-11-04T16:25:52.553Z,62.24
2018-11-04T16:28:20.709Z,62.40
2018-11-04T16:30:48.801Z,61.76
2018-11-04T16:33:16.930Z,62.27
2018-11-04T16:35:45.209Z,62.44
2018-11-04T16:38:13.333Z,62.24
2018-11-04T16:40:41.442Z,62.61
2018-11-04T16:43:09.648Z,62.33
2018-11-04T16:45:37.729Z,62.65
2018-11-04T16:48:05.898Z,62.66
2018-11-04T16:50:34.066Z,62.91
2018-11-04T16:53:02.219Z,62.59
2018-11-04T16:55:30.354Z,62.70
2018-11-04T16:57:58.432Z,62.71
2018-11-04T17:00:26.518Z,62.20
2018-11-04T17:02:54.663Z,63.22
2018-11-04T17:05:22.939Z,63.02
2018-11-04T17:07:50.897Z,63.08
2018-11-04T17:10:19.010Z,62.68
2018-11-04T17:12:47.107Z,63.26
2018-11-04T17:15:15.797Z,63.17
2018-11-04T17:17:44.269Z,63.43
2018-11-04T17:20:16.279Z,63.44
2018-11-04T17:22:44.727Z,63.38
2018-11-04T17:25:13.054Z,63.33
2018-11-04T17:27:41.282Z,63.42
2018-11-04T17:30:13.711Z,63.13
2018-11-04T17:32:41.904Z,63.31
2018-11-04T17:35:11.563Z,63.36
2018-11-04T17:37:40.083Z,63.67
2018-11-04T17:40:10.338Z,63.56
2018-11-04T17:42:38.561Z,63.21
2018-11-04T17:45:08.015Z,63.44
2018-11-04T17:47:36.533Z,63.33
2018-11-04T17:50:04.859Z,63.19
2018-11-04T17:52:33.012Z,63.55
2018-11-04T17:55:01.082Z,63.16
2018-11-04T17:57:29.274Z,63.49
2018-11-04T17:59:57.341Z,63.94
2018-11-04T18:02:25.449Z,63.89
2018-11-04T18:04:53.565Z,63.51
2018-11-04T18:07:21.659Z,63.70
2018-11-04T18:09:49.799Z,63.67
2018-11-04T18:12:17.976Z,63.61
2018-11-04T18:14:46.087Z,64.05
2018-11-04T18:17:14.192Z,63.88
2018-11-04T18:19:42.258Z,63.33
2018-11-04T18:22:10.329Z,63.67
2018-11-04T18:24:38.428Z,64.15
2018-11-04T18:27:06.582Z,63.75
2018-11-04T18:29:34.718Z,63.80
2018-11-04T18:32:02.808Z,63.95
2018-11-04T18:34:30.925Z,63.80
2018-11-04T18:36:59.056Z,63.65
2018-11-04T18:39:27.137Z,63.30
2018-11-04T18:41:55.228Z,63.49
2018-11-04T18:44:23.463Z,63.90
2018-11-04T18:46:51.491Z,63.90
2018-11-04T18:49:19.736Z,63.94
2018-11-04T18:51:47.758Z,64.21
2018-11-04T18:54:15.882Z,64.04
2018-11-04T18:56:44.023Z,63.36
2018-11-04T18:59:12.161Z,63.91
2018-11-04T19:01:40.226Z,63.87
2018-11-04T19:04:08.329Z,64.05
2018-11-04T19:06:36.424Z,63.64
2018-11-04T19:09:06.584Z,64.23
2018-11-04T19:11:34.775Z,64.16
2018-11-04T19:14:02.836Z,63.71
2018-11-04T19:16:31.164Z,63.68
2018-11-04T19:18:59.456Z,63.66
2018-11-04T19:21:27.459Z,63.76
2018-11-04T19:23:55.555Z,64.23
2018-11-04T19:26:23.657Z,63.87
2018-11-04T19:28:51.775Z,64.39
2018-11-04T19:31:20.079Z,63.87
2018-11-04T19:33:48.018Z,64.04
2018-11-04T19:36:16.158Z,64.27
2018-11-04T19:38:44.666Z,64.08
2018-11-04T19:41:12.743Z,64.02
2018-11-04T19:43:40.868Z,64.30
2018-11-04T19:46:09.038Z,64.54
2018-11-04T19:48:37.203Z,64.25
2018-11-04T19:51:05.644Z,64.26
2018-11-04T19:53:33.705Z,64.00
2018-11-04T19:56:01.819Z,64.03
2018-11-04T19:58:29.925Z,64.11
2018-11-04T20:00:58.024Z,64.00
2018-11-04T20:03:26.100Z,63.94
2018-11-04T20:05:54.220Z,63.87
2018-11-04T20:08:22.423Z,63.91
2018-11-04T20:10:50.518Z,63.75
2018-11-04T20:13:23.982Z,63.83
2018-11-04T20:15:51.996Z,64.09
2018-11-04T20:18:25.408Z,63.78
2018-11-04T20:20:53.497Z,63.98
2018-11-04T20:23:21.582Z,64.02
2018-11-04T20:25:55.130Z,64.20
2018-11-04T20:28:23.268Z,63.91
2018-11-04T20:30:51.345Z,63.82
2018-11-04T20:33:19.659Z,64.05
2018-11-04T20:35:47.811Z,64.27
2018-11-04T20:38:15.813Z,64.53
2018-11-04T20:40:49.369Z,64.47
2018-11-04T20:43:17.508Z,64.25
2018-11-04T20:45:45.782Z,64.29
2018-11-04T20:48:19.283Z,64.07
2018-11-04T20:50:52.786Z,64.40
2018-11-04T20:53:20.898Z,64.12
2018-11-04T20:55:54.272Z,64.07
2018-11-04T20:58:22.562Z,63.99
2018-11-04T21:00:50.516Z,64.26
2018-11-04T21:03:18.652Z,63.87
2018-11-04T21:05:46.809Z,63.88
2018-11-04T21:08:15.112Z,63.83
2018-11-04T21:10:43.217Z,64.29
2018-11-04T21:13:11.297Z,64.18
2018-11-04T21:15:39.383Z,64.28
2018-11-04T21:18:07.464Z,64.00
2018-11-04T21:20:35.571Z,63.91
2018-11-04T21:23:03.706Z,63.75
2018-11-04T21:25:32.224Z,63.85
2018-11-04T21:28:00.140Z,64.18
2018-11-04T21:30:28.113Z,63.55
2018-11-04T21:32:56.219Z,64.53
2018-11-04T21:35:24.366Z,64.28
2018-11-04T21:37:52.527Z,64.55
2018-11-04T21:40:20.788Z,64.11
2018-11-04T21:42:49.821Z,63.96
2018-11-04T21:45:17.682Z,64.21
2018-11-04T21:47:46.168Z,64.50
2018-11-04T21:50:14.425Z,64.25
2018-11-04T21:52:42.689Z,64.27
2018-11-04T21:55:12.367Z,64.35
2018-11-04T21:57:41.454Z,64.33
2018-11-04T22:00:11.431Z,64.24
2018-11-04T22:02:39.671Z,64.35
2018-11-04T22:05:08.388Z,64.53
2018-11-04T22:07:36.566Z,64.43
2018-11-04T22:10:06.519Z,64.08
2018-11-04T22:12:34.687Z,64.02
2018-11-04T22:15:02.770Z,64.31
2018-11-04T22:17:30.971Z,64.48
2018-11-04T22:19:59.226Z,64.22
2018-11-04T22:22:27.365Z,64.42
2018-11-04T22:24:55.453Z,64.63
2018-11-04T22:27:23.564Z,64.22
2018-11-04T22:29:51.670Z,64.52
2018-11-04T22:32:19.771Z,64.28
2018-11-04T22:34:47.870Z,64.91
2018-11-04T22:37:15.944Z,64.85
2018-11-04T22:39:44.058Z,64.56
2018-11-04T22:42:12.271Z,64.50
2018-11-04T22:44:40.310Z,64.71
2018-11-04T22:47:08.405Z,64.55
2018-11-04T22:49:36.537Z,64.70
2018-11-04T22:52:05.107Z,64.88
2018-11-04T22:54:33.260Z,64.83
2018-11-04T22:57:01.516Z,65.08
2018-11-04T22:59:29.584Z,65.32
2018-11-04T23:01:57.737Z,65.17
2018-11-04T23:04:31.175Z,65.17
2018-11-04T23:06:59.270Z,65.14
2018-11-04T23:09:27.400Z,65.15
2018-11-04T23:11:55.513Z,65.47
2018-11-04T23:14:23.620Z,65.53
2018-11-04T23:16:51.700Z,65.21
2018-11-04T23:19:19.793Z,65.11
2018-11-04T23:21:47.895Z,65.61
2018-11-04T23:24:15.960Z,65.14
2018-11-04T23:26:44.082Z,65.10
2018-11-04T23:29:12.153Z,65.03
2018-11-04T23:31:40.259Z,64.88
2018-11-04T23:34:08.354Z,65.19
2018-11-04T23:36:36.545Z,65.04
2018-11-04T23:39:06.641Z,64.70
2018-11-04T23:41:34.749Z,65.04
2018-11-04T23:44:02.815Z,64.73
2018-11-04T23:46:30.891Z,64.99
2018-11-04T23:48:59.008Z,65.04
2018-11-04T23:51:27.126Z,64.92
2018-11-04T23:53:55.193Z,64.82
2018-11-04T23:56:23.282Z,65.08
2018-11-04T23:58:51.584Z,65.03
